sensor_id;sensor_type;location;lat;lon;timestamp;pressure;altitude;pressure_sealevel;temperature;humidity
61676;BME280;47574;52.090;5.244;2023-03-12T00:00:24;101116.0;;;9.19;43.12
61676;BME280;47574;52.090;5.244;2023-03-12T00:02:01;101114.0;;;9.16;43.08
61676;BME280;47574;52.090;5.244;2023-03-12T00:05:14;101114.0;;;9.23;43.29
61676;BME280;47574;52.090;5.244;2023-03-12T00:06:50;101109.0;;;9.14;43.2
61676;BME280;47574;52.090;5.244;2023-03-12T00:08:27;101107.0;;;9.23;44.09
61676;BME280;47574;52.090;5.244;2023-03-12T00:11:42;101101.0;;;9.16;43.99
61676;BME280;47574;52.090;5.244;2023-03-12T00:13:17;101100.0;;;9.21;43.69
61676;BME280;47574;52.090;5.244;2023-03-12T00:14:53;101095.0;;;9.31;43.29
61676;BME280;47574;52.090;5.244;2023-03-12T00:16:30;101100.0;;;9.36;44.06
61676;BME280;47574;52.090;5.244;2023-03-12T00:19:43;101103.0;;;9.23;43.09
61676;BME280;47574;52.090;5.244;2023-03-12T00:21:21;101098.0;;;9.18;43.49
61676;BME280;47574;52.090;5.244;2023-03-12T00:22:57;101093.0;;;9.28;43.87
61676;BME280;47574;52.090;5.244;2023-03-12T00:26:12;101095.0;;;9.36;43.76
61676;BME280;47574;52.090;5.244;2023-03-12T00:27:48;101089.0;;;9.38;43.45
61676;BME280;47574;52.090;5.244;2023-03-12T00:29:25;101093.0;;;9.39;43.05
61676;BME280;47574;52.090;5.244;2023-03-12T00:34:14;101097.0;;;9.39;43.43
61676;BME280;47574;52.090;5.244;2023-03-12T00:35:50;101094.0;;;9.28;43.39
61676;BME280;47574;52.090;5.244;2023-03-12T00:37:27;101096.0;;;9.43;43.01
61676;BME280;47574;52.090;5.244;2023-03-12T00:40:39;101102.0;;;9.28;43.82
61676;BME280;47574;52.090;5.244;2023-03-12T00:42:16;101102.0;;;9.31;43.97
61676;BME280;47574;52.090;5.244;2023-03-12T00:43:53;101093.0;;;9.26;43.84
61676;BME280;47574;52.090;5.244;2023-03-12T00:47:05;101095.0;;;9.25;43.75
61676;BME280;47574;52.090;5.244;2023-03-12T00:48:42;101094.0;;;9.23;43.7
61676;BME280;47574;52.090;5.244;2023-03-12T00:50:19;101092.0;;;9.44;43.24
61676;BME280;47574;52.090;5.244;2023-03-12T00:53:32;101094.0;;;9.31;43.65
61676;BME280;47574;52.090;5.244;2023-03-12T00:55:08;101091.0;;;9.22;43.56
61676;BME280;47574;52.090;5.244;2023-03-12T00:56:45;101087.0;;;9.31;43.58
61676;BME280;47574;52.090;5.244;2023-03-12T00:58:22;101083.0;;;9.23;43.8
61676;BME280;47574;52.090;5.244;2023-03-12T01:01:35;101074.0;;;9.28;43.45
61676;BME280;47574;52.090;5.244;2023-03-12T01:03:11;101075.0;;;9.32;43.49
61676;BME280;47574;52.090;5.244;2023-03-12T01:04:48;101070.0;;;9.21;44.74
61676;BME280;47574;52.090;5.244;2023-03-12T01:08:02;101062.0;;;9.34;44.07
61676;BME280;47574;52.090;5.244;2023-03-12T01:09:38;101050.0;;;9.52;43.13
61676;BME280;47574;52.090;5.244;2023-03-12T01:11:16;101050.0;;;9.36;43.53
61676;BME280;47574;52.090;5.244;2023-03-12T01:14:30;101049.0;;;9.22;43.99
61676;BME280;47574;52.090;5.244;2023-03-12T01:16:06;101050.0;;;9.23;44.66
61676;BME280;47574;52.090;5.244;2023-03-12T01:17:43;101056.0;;;9.35;44.54
61676;BME280;47574;52.090;5.244;2023-03-12T01:19:19;101058.0;;;9.39;44.41
61676;BME280;47574;52.090;5.244;2023-03-12T01:22:31;101056.0;;;9.44;43.9
61676;BME280;47574;52.090;5.244;2023-03-12T01:24:09;101059.0;;;9.31;44.04
61676;BME280;47574;52.090;5.244;2023-03-12T01:25:46;101061.0;;;9.27;44.09
61676;BME280;47574;52.090;5.244;2023-03-12T01:28:58;101064.0;;;9.22;44.78
61676;BME280;47574;52.090;5.244;2023-03-12T01:30:35;101071.0;;;9.24;44.5
61676;BME280;47574;52.090;5.244;2023-03-12T01:32:11;101065.0;;;9.21;44.29
61676;BME280;47574;52.090;5.244;2023-03-12T01:35:27;101063.0;;;9.42;44.01
61676;BME280;47574;52.090;5.244;2023-03-12T01:37:03;101063.0;;;9.4;44.46
61676;BME280;47574;52.090;5.244;2023-03-12T01:38:39;101061.0;;;9.39;44.51
61676;BME280;47574;52.090;5.244;2023-03-12T01:40:17;101055.0;;;9.31;44.35
61676;BME280;47574;52.090;5.244;2023-03-12T01:43:35;101053.0;;;9.27;43.95
61676;BME280;47574;52.090;5.244;2023-03-12T01:48:57;101046.0;;;9.39;44.09
61676;BME280;47574;52.090;5.244;2023-03-12T01:52:13;101041.0;;;9.39;44.32
61676;BME280;47574;52.090;5.244;2023-03-12T01:53:56;101042.0;;;9.39;44.68
61676;BME280;47574;52.090;5.244;2023-03-12T01:55:33;101036.0;;;9.32;44.52
61676;BME280;47574;52.090;5.244;2023-03-12T01:57:12;101038.0;;;9.34;44.41
61676;BME280;47574;52.090;5.244;2023-03-12T02:00:33;101033.0;;;9.5;43.82
61676;BME280;47574;52.090;5.244;2023-03-12T02:02:11;101034.0;;;9.51;44.24
61676;BME280;47574;52.090;5.244;2023-03-12T02:03:50;101030.0;;;9.53;43.88
61676;BME280;47574;52.090;5.244;2023-03-12T02:05:32;101027.0;;;9.49;44.41
61676;BME280;47574;52.090;5.244;2023-03-12T02:08:51;101026.0;;;9.44;44.6
61676;BME280;47574;52.090;5.244;2023-03-12T02:10:28;101021.0;;;9.58;44.5
61676;BME280;47574;52.090;5.244;2023-03-12T02:12:05;101018.0;;;9.48;44.47
61676;BME280;47574;52.090;5.244;2023-03-12T02:13:42;101015.0;;;9.43;43.97
61676;BME280;47574;52.090;5.244;2023-03-12T02:16:56;101012.0;;;9.55;44.63
61676;BME280;47574;52.090;5.244;2023-03-12T02:18:34;101007.0;;;9.4;43.88
61676;BME280;47574;52.090;5.244;2023-03-12T02:20:14;101002.0;;;9.47;43.79
61676;BME280;47574;52.090;5.244;2023-03-12T02:23:37;100997.0;;;9.39;44.25
61676;BME280;47574;52.090;5.244;2023-03-12T02:25:25;100999.0;;;9.46;44.36
61676;BME280;47574;52.090;5.244;2023-03-12T02:27:04;100997.0;;;9.56;44.31
61676;BME280;47574;52.090;5.244;2023-03-12T02:28:41;100989.0;;;9.64;43.91
61676;BME280;47574;52.090;5.244;2023-03-12T02:31:58;100982.0;;;9.58;43.55
61676;BME280;47574;52.090;5.244;2023-03-12T02:33:35;100975.0;;;9.59;43.74
61676;BME280;47574;52.090;5.244;2023-03-12T02:35:13;100973.0;;;9.56;43.98
61676;BME280;47574;52.090;5.244;2023-03-12T02:36:50;100970.0;;;9.63;44.12
61676;BME280;47574;52.090;5.244;2023-03-12T02:40:17;100965.0;;;9.65;43.4
61676;BME280;47574;52.090;5.244;2023-03-12T03:12:40;100927.0;;;9.66;43.47
61676;BME280;47574;52.090;5.244;2023-03-12T03:15:54;100932.0;;;9.69;43.98
61676;BME280;47574;52.090;5.244;2023-03-12T03:17:30;100922.0;;;9.73;43.56
61676;BME280;47574;52.090;5.244;2023-03-12T03:19:06;100925.0;;;9.55;43.64
61676;BME280;47574;52.090;5.244;2023-03-12T03:20:43;100918.0;;;9.41;44.24
61676;BME280;47574;52.090;5.244;2023-03-12T03:23:57;100912.0;;;9.5;43.79
61676;BME280;47574;52.090;5.244;2023-03-12T03:25:33;100908.0;;;9.52;43.74
61676;BME280;47574;52.090;5.244;2023-03-12T03:27:10;100901.0;;;9.46;44.04
61676;BME280;47574;52.090;5.244;2023-03-12T03:30:24;100895.0;;;9.58;43.73
61676;BME280;47574;52.090;5.244;2023-03-12T03:32:00;100897.0;;;9.64;44.27
61676;BME280;47574;52.090;5.244;2023-03-12T03:33:37;100896.0;;;9.66;44.17
61676;BME280;47574;52.090;5.244;2023-03-12T03:35:14;100893.0;;;9.57;44.3
61676;BME280;47574;52.090;5.244;2023-03-12T03:38:29;100884.0;;;9.27;44.55
61676;BME280;47574;52.090;5.244;2023-03-12T03:40:10;100880.0;;;9.3;44.48
61676;BME280;47574;52.090;5.244;2023-03-12T03:41:46;100880.0;;;9.39;44.66
61676;BME280;47574;52.090;5.244;2023-03-12T03:45:01;100878.0;;;9.52;44.55
61676;BME280;47574;52.090;5.244;2023-03-12T03:46:38;100882.0;;;9.59;44.7
61676;BME280;47574;52.090;5.244;2023-03-12T03:48:15;100882.0;;;9.33;44.96
61676;BME280;47574;52.090;5.244;2023-03-12T03:49:51;100877.0;;;9.43;44.7
61676;BME280;47574;52.090;5.244;2023-03-12T03:53:05;100878.0;;;9.49;44.32
61676;BME280;47574;52.090;5.244;2023-03-12T03:54:43;100872.0;;;9.56;45.02
61676;BME280;47574;52.090;5.244;2023-03-12T03:56:19;100878.0;;;9.6;44.44
61676;BME280;47574;52.090;5.244;2023-03-12T03:59:32;100878.0;;;9.22;44.9
61676;BME280;47574;52.090;5.244;2023-03-12T04:01:09;100881.0;;;9.46;45.16
61676;BME280;47574;52.090;5.244;2023-03-12T04:02:47;100882.0;;;9.34;46.52
61676;BME280;47574;52.090;5.244;2023-03-12T04:06:02;100880.0;;;9.59;45.65
61676;BME280;47574;52.090;5.244;2023-03-12T04:07:39;100872.0;;;9.4;45.96
61676;BME280;47574;52.090;5.244;2023-03-12T04:09:15;100873.0;;;9.49;46.38
61676;BME280;47574;52.090;5.244;2023-03-12T04:10:51;100870.0;;;9.41;45.92
61676;BME280;47574;52.090;5.244;2023-03-12T04:14:05;100873.0;;;9.39;47.11
61676;BME280;47574;52.090;5.244;2023-03-12T04:15:45;100869.0;;;9.5;46.3
61676;BME280;47574;52.090;5.244;2023-03-12T04:17:22;100867.0;;;9.57;46.69
61676;BME280;47574;52.090;5.244;2023-03-12T04:20:35;100864.0;;;9.46;46.68
61676;BME280;47574;52.090;5.244;2023-03-12T04:22:11;100860.0;;;9.46;47.35
61676;BME280;47574;52.090;5.244;2023-03-12T04:23:47;100859.0;;;9.64;47.39
61676;BME280;47574;52.090;5.244;2023-03-12T04:26:59;100855.0;;;9.47;47.65
61676;BME280;47574;52.090;5.244;2023-03-12T04:28:36;100855.0;;;9.48;47.93
61676;BME280;47574;52.090;5.244;2023-03-12T04:30:13;100850.0;;;9.5;47.8
61676;BME280;47574;52.090;5.244;2023-03-12T04:31:49;100851.0;;;9.57;47.74
61676;BME280;47574;52.090;5.244;2023-03-12T04:35:02;100843.0;;;9.65;47.97
61676;BME280;47574;52.090;5.244;2023-03-12T04:36:39;100836.0;;;9.58;48.25
61676;BME280;47574;52.090;5.244;2023-03-12T04:38:16;100828.0;;;9.56;48.52
61676;BME280;47574;52.090;5.244;2023-03-12T04:41:30;100831.0;;;9.35;48.65
61676;BME280;47574;52.090;5.244;2023-03-12T04:43:06;100826.0;;;9.49;48.84
61676;BME280;47574;52.090;5.244;2023-03-12T04:44:42;100821.0;;;9.42;49.0
61676;BME280;47574;52.090;5.244;2023-03-12T04:47:54;100815.0;;;9.35;49.03
61676;BME280;47574;52.090;5.244;2023-03-12T04:49:30;100808.0;;;9.39;49.35
61676;BME280;47574;52.090;5.244;2023-03-12T04:51:06;100805.0;;;9.38;49.43
61676;BME280;47574;52.090;5.244;2023-03-12T04:52:43;100803.0;;;9.33;49.88
61676;BME280;47574;52.090;5.244;2023-03-12T04:55:56;100794.0;;;9.31;49.88
61676;BME280;47574;52.090;5.244;2023-03-12T04:57:32;100784.0;;;9.31;50.02
61676;BME280;47574;52.090;5.244;2023-03-12T04:59:08;100780.0;;;9.5;50.32
61676;BME280;47574;52.090;5.244;2023-03-12T05:02:22;100769.0;;;9.36;50.44
61676;BME280;47574;52.090;5.244;2023-03-12T05:04:00;100768.0;;;9.42;50.51
61676;BME280;47574;52.090;5.244;2023-03-12T05:05:37;100766.0;;;9.51;49.79
61676;BME280;47574;52.090;5.244;2023-03-12T05:08:50;100764.0;;;9.51;50.01
61676;BME280;47574;52.090;5.244;2023-03-12T05:10:27;100764.0;;;9.51;49.7
61676;BME280;47574;52.090;5.244;2023-03-12T05:12:03;100767.0;;;9.48;49.84
61676;BME280;47574;52.090;5.244;2023-03-12T05:13:40;100760.0;;;9.49;50.06
61676;BME280;47574;52.090;5.244;2023-03-12T05:16:55;100758.0;;;9.56;49.33
61676;BME280;47574;52.090;5.244;2023-03-12T05:18:31;100757.0;;;9.58;49.74
61676;BME280;47574;52.090;5.244;2023-03-12T05:20:09;100757.0;;;9.39;49.76
61676;BME280;47574;52.090;5.244;2023-03-12T05:23:23;100751.0;;;9.51;49.86
61676;BME280;47574;52.090;5.244;2023-03-12T05:25:00;100748.0;;;9.57;49.52
61676;BME280;47574;52.090;5.244;2023-03-12T05:26:38;100749.0;;;9.53;49.21
61676;BME280;47574;52.090;5.244;2023-03-12T05:28:14;100755.0;;;9.34;49.73
61676;BME280;47574;52.090;5.244;2023-03-12T05:31:28;100755.0;;;9.23;50.28
61676;BME280;47574;52.090;5.244;2023-03-12T05:33:04;100751.0;;;9.52;49.96
61676;BME280;47574;52.090;5.244;2023-03-12T05:34:41;100750.0;;;9.51;49.36
61676;BME280;47574;52.090;5.244;2023-03-12T05:37:55;100746.0;;;9.58;49.46
61676;BME280;47574;52.090;5.244;2023-03-12T05:39:31;100743.0;;;9.63;49.71
61676;BME280;47574;52.090;5.244;2023-03-12T05:41:09;100738.0;;;9.57;49.58
61676;BME280;47574;52.090;5.244;2023-03-12T05:42:54;100744.0;;;9.47;49.73
61676;BME280;47574;52.090;5.244;2023-03-12T05:46:08;100747.0;;;9.56;49.77
61676;BME280;47574;52.090;5.244;2023-03-12T05:47:44;100745.0;;;9.63;49.37
61676;BME280;47574;52.090;5.244;2023-03-12T05:49:21;100736.0;;;9.21;50.16
61676;BME280;47574;52.090;5.244;2023-03-12T05:52:33;100735.0;;;9.42;49.91
61676;BME280;47574;52.090;5.244;2023-03-12T05:54:09;100733.0;;;9.47;50.66
61676;BME280;47574;52.090;5.244;2023-03-12T05:55:45;100734.0;;;9.35;50.95
61676;BME280;47574;52.090;5.244;2023-03-12T05:58:58;100736.0;;;9.44;51.1
61676;BME280;47574;52.090;5.244;2023-03-12T06:00:35;100742.0;;;9.23;50.88
61676;BME280;47574;52.090;5.244;2023-03-12T06:02:11;100741.0;;;9.48;51.22
61676;BME280;47574;52.090;5.244;2023-03-12T06:03:48;100740.0;;;9.6;50.81
61676;BME280;47574;52.090;5.244;2023-03-12T06:07:00;100742.0;;;9.4;50.79
61676;BME280;47574;52.090;5.244;2023-03-12T06:08:37;100748.0;;;9.43;51.37
61676;BME280;47574;52.090;5.244;2023-03-12T06:10:13;100744.0;;;9.42;51.18
61676;BME280;47574;52.090;5.244;2023-03-12T06:13:27;100740.0;;;9.65;51.24
61676;BME280;47574;52.090;5.244;2023-03-12T06:15:04;100741.0;;;9.21;52.23
61676;BME280;47574;52.090;5.244;2023-03-12T06:16:40;100739.0;;;9.6;52.1
61676;BME280;47574;52.090;5.244;2023-03-12T06:19:52;100742.0;;;9.14;53.11
61676;BME280;47574;52.090;5.244;2023-03-12T06:21:31;100746.0;;;9.16;53.48
61676;BME280;47574;52.090;5.244;2023-03-12T06:23:08;100745.0;;;9.24;53.89
61676;BME280;47574;52.090;5.244;2023-03-12T06:24:44;100737.0;;;9.14;54.56
61676;BME280;47574;52.090;5.244;2023-03-12T06:27:58;100737.0;;;9.17;54.9
61676;BME280;47574;52.090;5.244;2023-03-12T06:29:34;100739.0;;;9.32;55.18
61676;BME280;47574;52.090;5.244;2023-03-12T06:31:10;100735.0;;;9.24;54.98
61676;BME280;47574;52.090;5.244;2023-03-12T06:34:23;100731.0;;;8.92;56.33
61676;BME280;47574;52.090;5.244;2023-03-12T06:36:03;100727.0;;;9.03;55.85
61676;BME280;47574;52.090;5.244;2023-03-12T06:37:40;100720.0;;;8.92;56.89
61676;BME280;47574;52.090;5.244;2023-03-12T06:40:54;100722.0;;;9.18;56.01
61676;BME280;47574;52.090;5.244;2023-03-12T06:42:31;100723.0;;;9.28;56.06
61676;BME280;47574;52.090;5.244;2023-03-12T06:44:07;100720.0;;;9.22;56.3
61676;BME280;47574;52.090;5.244;2023-03-12T06:45:44;100711.0;;;8.94;57.11
61676;BME280;47574;52.090;5.244;2023-03-12T06:48:56;100711.0;;;8.91;57.59
61676;BME280;47574;52.090;5.244;2023-03-12T06:50:32;100708.0;;;8.99;57.56
61676;BME280;47574;52.090;5.244;2023-03-12T06:52:09;100710.0;;;9.01;57.5
61676;BME280;47574;52.090;5.244;2023-03-12T06:55:22;100705.0;;;9.27;57.16
61676;BME280;47574;52.090;5.244;2023-03-12T06:56:58;100703.0;;;9.01;57.68
61676;BME280;47574;52.090;5.244;2023-03-12T06:58:34;100700.0;;;9.14;57.47
61676;BME280;47574;52.090;5.244;2023-03-12T07:01:48;100696.0;;;9.24;57.37
61676;BME280;47574;52.090;5.244;2023-03-12T07:03:25;100696.0;;;9.07;58.04
61676;BME280;47574;52.090;5.244;2023-03-12T07:05:01;100684.0;;;9.3;57.43
61676;BME280;47574;52.090;5.244;2023-03-12T07:06:37;100685.0;;;9.26;57.38
61676;BME280;47574;52.090;5.244;2023-03-12T07:09:50;100678.0;;;9.07;57.95
61676;BME280;47574;52.090;5.244;2023-03-12T07:11:26;100673.0;;;8.97;58.59
61676;BME280;47574;52.090;5.244;2023-03-12T07:13:03;100668.0;;;9.18;57.95
61676;BME280;47574;52.090;5.244;2023-03-12T07:16:15;100666.0;;;9.19;58.1
61676;BME280;47574;52.090;5.244;2023-03-12T07:17:51;100672.0;;;8.99;58.83
61676;BME280;47574;52.090;5.244;2023-03-12T07:19:27;100677.0;;;9.0;58.74
61676;BME280;47574;52.090;5.244;2023-03-12T07:22:41;100673.0;;;9.16;58.71
61676;BME280;47574;52.090;5.244;2023-03-12T07:24:17;100672.0;;;9.01;58.99
61676;BME280;47574;52.090;5.244;2023-03-12T07:25:54;100681.0;;;9.16;58.88
61676;BME280;47574;52.090;5.244;2023-03-12T07:27:30;100688.0;;;8.9;59.19
61676;BME280;47574;52.090;5.244;2023-03-12T07:30:42;100678.0;;;9.15;58.87
61676;BME280;47574;52.090;5.244;2023-03-12T07:32:19;100680.0;;;9.16;58.57
61676;BME280;47574;52.090;5.244;2023-03-12T07:33:55;100695.0;;;9.23;59.02
61676;BME280;47574;52.090;5.244;2023-03-12T07:37:09;100700.0;;;9.24;58.58
61676;BME280;47574;52.090;5.244;2023-03-12T07:38:46;100698.0;;;9.16;59.4
61676;BME280;47574;52.090;5.244;2023-03-12T07:40:22;100709.0;;;9.05;59.44
61676;BME280;47574;52.090;5.244;2023-03-12T07:43:34;100707.0;;;9.11;59.17
61676;BME280;47574;52.090;5.244;2023-03-12T07:45:10;100705.0;;;9.16;59.36
61676;BME280;47574;52.090;5.244;2023-03-12T07:46:46;100707.0;;;9.25;58.93
61676;BME280;47574;52.090;5.244;2023-03-12T07:48:22;100702.0;;;9.34;59.02
61676;BME280;47574;52.090;5.244;2023-03-12T07:51:34;100697.0;;;9.56;58.24
61676;BME280;47574;52.090;5.244;2023-03-12T07:53:10;100705.0;;;9.47;58.61
61676;BME280;47574;52.090;5.244;2023-03-12T07:54:46;100705.0;;;9.63;58.58
61676;BME280;47574;52.090;5.244;2023-03-12T07:57:58;100709.0;;;9.71;58.17
61676;BME280;47574;52.090;5.244;2023-03-12T07:59:34;100710.0;;;9.56;58.62
61676;BME280;47574;52.090;5.244;2023-03-12T08:01:10;100707.0;;;9.6;58.81
61676;BME280;47574;52.090;5.244;2023-03-12T08:04:23;100707.0;;;9.76;58.46
61676;BME280;47574;52.090;5.244;2023-03-12T08:06:01;100702.0;;;9.83;58.34
61676;BME280;47574;52.090;5.244;2023-03-12T08:07:37;100703.0;;;9.88;58.04
61676;BME280;47574;52.090;5.244;2023-03-12T08:10:51;100699.0;;;9.48;59.44
61676;BME280;47574;52.090;5.244;2023-03-12T08:12:28;100692.0;;;9.69;59.2
61676;BME280;47574;52.090;5.244;2023-03-12T08:14:05;100694.0;;;9.55;59.61
61676;BME280;47574;52.090;5.244;2023-03-12T08:15:42;100698.0;;;9.77;59.16
61676;BME280;47574;52.090;5.244;2023-03-12T08:18:56;100697.0;;;9.78;59.11
61676;BME280;47574;52.090;5.244;2023-03-12T08:20:33;100698.0;;;9.8;59.19
61676;BME280;47574;52.090;5.244;2023-03-12T08:22:09;100698.0;;;9.61;59.89
61676;BME280;47574;52.090;5.244;2023-03-12T08:25:24;100697.0;;;9.6;59.94
61676;BME280;47574;52.090;5.244;2023-03-12T08:27:01;100697.0;;;9.73;59.92
61676;BME280;47574;52.090;5.244;2023-03-12T08:28:37;100695.0;;;9.67;60.12
61676;BME280;47574;52.090;5.244;2023-03-12T08:30:13;100690.0;;;9.89;59.75
61676;BME280;47574;52.090;5.244;2023-03-12T08:33:28;100693.0;;;9.94;59.83
61676;BME280;47574;52.090;5.244;2023-03-12T08:35:04;100698.0;;;10.06;59.52
61676;BME280;47574;52.090;5.244;2023-03-12T08:36:41;100699.0;;;10.21;59.15
61676;BME280;47574;52.090;5.244;2023-03-12T08:39:55;100703.0;;;10.23;59.17
61676;BME280;47574;52.090;5.244;2023-03-12T08:41:31;100703.0;;;9.92;60.11
61676;BME280;47574;52.090;5.244;2023-03-12T08:43:07;100705.0;;;10.21;59.77
61676;BME280;47574;52.090;5.244;2023-03-12T08:46:20;100707.0;;;10.21;59.33
61676;BME280;47574;52.090;5.244;2023-03-12T08:47:57;100700.0;;;9.89;60.52
61676;BME280;47574;52.090;5.244;2023-03-12T08:49:33;100705.0;;;9.84;60.76
61676;BME280;47574;52.090;5.244;2023-03-12T08:51:08;100697.0;;;10.05;60.42
61676;BME280;47574;52.090;5.244;2023-03-12T08:54:23;100699.0;;;10.13;60.17
61676;BME280;47574;52.090;5.244;2023-03-12T08:55:59;100711.0;;;10.15;60.19
61676;BME280;47574;52.090;5.244;2023-03-12T08:57:36;100720.0;;;10.27;60.1
61676;BME280;47574;52.090;5.244;2023-03-12T09:00:49;100714.0;;;10.28;60.36
61676;BME280;47574;52.090;5.244;2023-03-12T09:02:26;100714.0;;;10.14;60.71
61676;BME280;47574;52.090;5.244;2023-03-12T09:04:03;100715.0;;;10.38;60.36
61676;BME280;47574;52.090;5.244;2023-03-12T09:07:17;100720.0;;;10.4;60.28
61676;BME280;47574;52.090;5.244;2023-03-12T09:08:53;100719.0;;;10.43;60.35
61676;BME280;47574;52.090;5.244;2023-03-12T09:10:29;100715.0;;;10.59;60.29
61676;BME280;47574;52.090;5.244;2023-03-12T09:12:05;100713.0;;;10.58;60.59
61676;BME280;47574;52.090;5.244;2023-03-12T09:15:20;100708.0;;;10.35;61.48
61676;BME280;47574;52.090;5.244;2023-03-12T09:16:56;100698.0;;;10.67;60.81
61676;BME280;47574;52.090;5.244;2023-03-12T09:18:33;100700.0;;;10.33;62.05
61676;BME280;47574;52.090;5.244;2023-03-12T09:21:47;100700.0;;;10.61;61.53
61676;BME280;47574;52.090;5.244;2023-03-12T09:23:24;100695.0;;;10.74;61.23
61676;BME280;47574;52.090;5.244;2023-03-12T09:25:02;100689.0;;;10.3;62.55
61676;BME280;47574;52.090;5.244;2023-03-12T09:28:15;100686.0;;;10.49;62.66
61676;BME280;47574;52.090;5.244;2023-03-12T09:29:52;100688.0;;;10.64;62.43
61676;BME280;47574;52.090;5.244;2023-03-12T09:31:29;100685.0;;;10.78;62.36
61676;BME280;47574;52.090;5.244;2023-03-12T09:33:05;100696.0;;;10.96;62.22
61676;BME280;47574;52.090;5.244;2023-03-12T09:36:18;100696.0;;;10.83;62.55
61676;BME280;47574;52.090;5.244;2023-03-12T09:37:55;100695.0;;;10.73;63.27
61676;BME280;47574;52.090;5.244;2023-03-12T09:39:32;100699.0;;;10.99;62.79
61676;BME280;47574;52.090;5.244;2023-03-12T09:42:57;100706.0;;;10.6;64.27
61676;BME280;47574;52.090;5.244;2023-03-12T09:44:35;100705.0;;;11.06;63.03
61676;BME280;47574;52.090;5.244;2023-03-12T09:46:20;100705.0;;;11.16;62.82
61676;BME280;47574;52.090;5.244;2023-03-12T09:48:01;100706.0;;;11.54;61.79
61676;BME280;47574;52.090;5.244;2023-03-12T09:51:24;100707.0;;;11.21;62.85
61676;BME280;47574;52.090;5.244;2023-03-12T09:53:08;100706.0;;;11.55;61.95
61676;BME280;47574;52.090;5.244;2023-03-12T09:54:54;100710.0;;;11.27;62.78
61676;BME280;47574;52.090;5.244;2023-03-12T09:56:34;100709.0;;;11.45;62.6
61676;BME280;47574;52.090;5.244;2023-03-12T09:58:12;100719.0;;;11.27;63.16
61676;BME280;47574;52.090;5.244;2023-03-12T10:01:34;100716.0;;;11.42;63.03
61676;BME280;47574;52.090;5.244;2023-03-12T10:03:23;100719.0;;;11.42;63.49
61676;BME280;47574;52.090;5.244;2023-03-12T10:05:10;100712.0;;;11.46;63.72
61676;BME280;47574;52.090;5.244;2023-03-12T10:06:54;100715.0;;;11.69;62.93
61676;BME280;47574;52.090;5.244;2023-03-12T10:08:46;100724.0;;;11.83;62.66
61676;BME280;47574;52.090;5.244;2023-03-12T10:12:26;100718.0;;;11.88;62.7
61676;BME280;47574;52.090;5.244;2023-03-12T10:14:18;100715.0;;;11.97;62.58
61676;BME280;47574;52.090;5.244;2023-03-12T10:16:08;100723.0;;;11.8;63.24
61676;BME280;47574;52.090;5.244;2023-03-12T10:17:55;100717.0;;;11.73;63.97
61676;BME280;47574;52.090;5.244;2023-03-12T10:19:53;100716.0;;;11.79;63.98
61676;BME280;47574;52.090;5.244;2023-03-12T10:21:37;100706.0;;;12.1;63.41
61676;BME280;47574;52.090;5.244;2023-03-12T10:23:28;100706.0;;;11.77;65.03
61676;BME280;47574;52.090;5.244;2023-03-12T10:26:58;100700.0;;;12.42;63.04
61676;BME280;47574;52.090;5.244;2023-03-12T10:28:38;100705.0;;;12.28;63.88
61676;BME280;47574;52.090;5.244;2023-03-12T10:30:20;100706.0;;;12.39;63.85
61676;BME280;47574;52.090;5.244;2023-03-12T10:32:01;100708.0;;;12.81;62.58
61676;BME280;47574;52.090;5.244;2023-03-12T10:33:43;100707.0;;;12.67;63.42
61676;BME280;47574;52.090;5.244;2023-03-12T10:37:05;100710.0;;;12.54;64.3
61676;BME280;47574;52.090;5.244;2023-03-12T10:38:54;100707.0;;;12.51;64.55
61676;BME280;47574;52.090;5.244;2023-03-12T10:40:33;100706.0;;;12.43;65.27
61676;BME280;47574;52.090;5.244;2023-03-12T10:42:14;100706.0;;;12.73;64.6
61676;BME280;47574;52.090;5.244;2023-03-12T10:45:34;100703.0;;;13.02;63.59
61676;BME280;47574;52.090;5.244;2023-03-12T10:47:24;100699.0;;;13.07;63.62
61676;BME280;47574;52.090;5.244;2023-03-12T10:49:36;100698.0;;;13.03;64.08
61676;BME280;47574;52.090;5.244;2023-03-12T10:51:13;100701.0;;;12.68;65.25
61676;BME280;47574;52.090;5.244;2023-03-12T10:52:50;100697.0;;;13.36;63.32
61676;BME280;47574;52.090;5.244;2023-03-12T10:54:48;100706.0;;;13.17;63.86
61676;BME280;47574;52.090;5.244;2023-03-12T10:58:01;100709.0;;;13.3;63.53
61676;BME280;47574;52.090;5.244;2023-03-12T10:59:40;100709.0;;;13.09;64.05
61676;BME280;47574;52.090;5.244;2023-03-12T11:01:21;100705.0;;;12.61;65.67
61676;BME280;47574;52.090;5.244;2023-03-12T11:02:59;100700.0;;;12.91;65.02
61676;BME280;47574;52.090;5.244;2023-03-12T11:06:20;100708.0;;;13.32;63.8
61676;BME280;47574;52.090;5.244;2023-03-12T11:07:59;100708.0;;;13.0;64.63
61676;BME280;47574;52.090;5.244;2023-03-12T11:09:37;100706.0;;;13.12;64.13
61676;BME280;47574;52.090;5.244;2023-03-12T11:13:28;100702.0;;;13.29;63.56
61676;BME280;47574;52.090;5.244;2023-03-12T11:15:23;100697.0;;;13.35;63.77
61676;BME280;47574;52.090;5.244;2023-03-12T11:17:19;100706.0;;;13.15;64.28
61676;BME280;47574;52.090;5.244;2023-03-12T11:18:57;100718.0;;;12.99;65.09
61676;BME280;47574;52.090;5.244;2023-03-12T11:20:35;100728.0;;;13.28;64.35
61676;BME280;47574;52.090;5.244;2023-03-12T11:22:11;100733.0;;;13.72;62.63
61676;BME280;47574;52.090;5.244;2023-03-12T11:25:51;100730.0;;;13.62;63.06
61676;BME280;47574;52.090;5.244;2023-03-12T11:27:35;100724.0;;;13.63;63.18
61676;BME280;47574;52.090;5.244;2023-03-12T11:29:24;100743.0;;;13.44;63.74
61676;BME280;47574;52.090;5.244;2023-03-12T11:31:05;100734.0;;;13.51;63.72
61676;BME280;47574;52.090;5.244;2023-03-12T11:32:45;100728.0;;;13.63;63.51
61676;BME280;47574;52.090;5.244;2023-03-12T11:34:25;100724.0;;;13.64;63.59
61676;BME280;47574;52.090;5.244;2023-03-12T11:38:02;100726.0;;;13.6;63.78
61676;BME280;47574;52.090;5.244;2023-03-12T11:39:52;100728.0;;;13.15;65.35
61676;BME280;47574;52.090;5.244;2023-03-12T11:41:55;100720.0;;;13.51;64.31
61676;BME280;47574;52.090;5.244;2023-03-12T11:43:46;100725.0;;;13.35;64.67
61676;BME280;47574;52.090;5.244;2023-03-12T11:45:36;100721.0;;;13.33;64.86
61676;BME280;47574;52.090;5.244;2023-03-12T11:47:29;100721.0;;;13.33;65.08
61676;BME280;47574;52.090;5.244;2023-03-12T11:49:23;100722.0;;;13.51;64.38